createdAt,value
2017-11-17T00:00:46.346Z,3.29
2017-11-17T00:01:46.494Z,3.15
2017-11-17T00:02:46.221Z,3.12
2017-11-17T00:03:46.315Z,3.18
2017-11-17T00:04:46.456Z,3.06
2017-11-17T00:05:46.444Z,3
2017-11-17T00:06:46.433Z,3.09
2017-11-17T00:07:46.164Z,2.98
2017-11-17T00:08:46.152Z,3.08
2017-11-17T00:09:46.407Z,2.94
2017-11-17T00:10:46.131Z,2.94
2017-11-17T00:11:46.121Z,2.95
2017-11-17T00:12:46.368Z,2.93
2017-11-17T00:13:46.360Z,2.9
2017-11-17T00:14:46.087Z,2.87
2017-11-17T00:15:45.820Z,2.87
2017-11-17T00:16:46.326Z,2.82
2017-11-17T00:17:46.059Z,2.83
2017-11-17T00:18:46.306Z,2.87
2017-11-17T00:19:46.037Z,2.94
2017-11-17T00:20:46.025Z,3.01
2017-11-17T00:21:46.374Z,2.94
2017-11-17T00:22:46.265Z,3
2017-11-17T00:23:46.252Z,2.85
2017-11-17T00:24:45.985Z,2.85
2017-11-17T00:25:46.237Z,2.9
2017-11-17T00:26:46.221Z,2.91
2017-11-17T00:27:45.959Z,2.93
2017-11-17T00:28:45.938Z,2.91
2017-11-17T00:29:46.191Z,2.87
2017-11-17T00:30:46.174Z,2.91
2017-11-17T00:31:45.911Z,2.93
2017-11-17T00:32:45.902Z,3.06
2017-11-17T00:33:45.890Z,3.08
2017-11-17T00:34:45.876Z,3.06
2017-11-17T00:35:45.866Z,3.01
2017-11-17T00:36:46.110Z,3.05
2017-11-17T00:37:45.844Z,2.97
2017-11-17T00:38:45.936Z,2.95
2017-11-17T00:39:45.825Z,3.08
2017-11-17T00:40:46.069Z,3.09
2017-11-17T00:41:45.545Z,3.18
2017-11-17T00:42:45.795Z,3.18
2017-11-17T00:43:46.037Z,3.29
2017-11-17T00:44:45.875Z,3.19
2017-11-17T00:45:45.758Z,3.22
2017-11-17T00:46:45.754Z,3.22
2017-11-17T00:47:45.996Z,3.29
2017-11-17T00:48:45.727Z,3.21
2017-11-17T00:49:45.459Z,3.26
2017-11-17T00:50:45.704Z,3.27
2017-11-17T00:51:45.956Z,3.26
2017-11-17T00:52:45.942Z,3.19
2017-11-17T00:53:45.935Z,3.21
2017-11-17T00:54:45.664Z,3.09
2017-11-17T00:55:45.653Z,3.13
2017-11-17T00:56:45.903Z,3.15
2017-11-17T00:57:45.889Z,3.13
2017-11-17T00:58:45.880Z,3.03
2017-11-17T00:59:45.868Z,3.13
2017-11-17T01:00:45.874Z,3.21
2017-11-17T01:01:45.589Z,3.21
2017-11-17T01:02:45.579Z,3.3
2017-11-17T01:03:45.829Z,3.27
2017-11-17T01:04:45.565Z,3.29
2017-11-17T01:05:45.805Z,3.27
2017-11-17T01:06:45.279Z,3.3
2017-11-17T01:07:45.538Z,3.29
2017-11-17T01:08:45.519Z,3.37
2017-11-17T01:09:45.764Z,3.37
2017-11-17T01:10:45.606Z,3.27
2017-11-17T01:11:45.489Z,3.37
2017-11-17T01:12:45.734Z,3.4
2017-11-17T01:13:45.725Z,3.46
2017-11-17T01:14:45.707Z,3.49
2017-11-17T01:15:45.715Z,3.49
2017-11-17T01:16:45.446Z,3.5
2017-11-17T01:17:45.423Z,3.53
2017-11-17T01:18:45.418Z,3.48
2017-11-17T01:19:45.401Z,3.59
2017-11-17T01:20:45.650Z,3.58
2017-11-17T01:21:45.639Z,3.58
2017-11-17T01:22:45.628Z,3.61
2017-11-17T01:23:45.616Z,3.67
2017-11-17T01:24:45.612Z,3.68
2017-11-17T01:25:45.334Z,3.76
2017-11-17T01:26:45.323Z,3.81
2017-11-17T01:27:45.578Z,3.71
2017-11-17T01:28:45.565Z,3.84
2017-11-17T01:29:45.556Z,3.81
2017-11-17T01:30:45.542Z,3.85
2017-11-17T01:31:45.530Z,3.78
2017-11-17T01:32:45.521Z,3.74
2017-11-17T01:33:45.256Z,3.81
2017-11-17T01:34:45.508Z,3.78
2017-11-17T01:35:45.595Z,3.81
2017-11-17T01:36:45.476Z,3.88
2017-11-17T01:37:45.208Z,3.78
2017-11-17T01:38:45.199Z,3.77
2017-11-17T01:39:45.191Z,3.76
2017-11-17T01:40:45.437Z,3.76
2017-11-17T01:41:45.423Z,3.77
2017-11-17T01:42:45.418Z,3.81
2017-11-17T01:43:45.149Z,3.68
2017-11-17T01:44:45.404Z,3.76
2017-11-17T01:45:45.488Z,3.76
2017-11-17T01:46:45.115Z,3.71
2017-11-17T01:47:45.103Z,3.81
2017-11-17T01:48:45.372Z,3.81
2017-11-17T01:49:45.348Z,3.81
2017-11-17T01:50:45.333Z,3.78
2017-11-17T01:51:44.806Z,3.76
2017-11-17T01:52:45.431Z,3.76
2017-11-17T01:53:45.300Z,3.78
2017-11-17T01:54:45.032Z,3.67
2017-11-17T01:55:45.027Z,3.7
2017-11-17T01:56:45.266Z,3.76
2017-11-17T01:57:45.259Z,3.85
2017-11-17T01:58:44.991Z,3.78
2017-11-17T01:59:44.980Z,3.91
2017-11-17T02:00:44.712Z,3.86
2017-11-17T02:01:45.221Z,4
2017-11-17T02:02:45.049Z,3.99
2017-11-17T02:03:44.681Z,4.03
2017-11-17T02:04:44.930Z,3.96
2017-11-17T02:05:45.172Z,3.96
2017-11-17T02:06:45.168Z,3.99
2017-11-17T02:07:44.896Z,4.04
2017-11-17T02:08:45.146Z,4.02
2017-11-17T02:09:45.134Z,4.07
2017-11-17T02:10:44.966Z,4.12
2017-11-17T02:11:45.110Z,4.12
2017-11-17T02:12:44.856Z,4.14
2017-11-17T02:13:45.191Z,4.12
2017-11-17T02:14:44.831Z,4.07
2017-11-17T02:15:45.068Z,4.13
2017-11-17T02:16:45.062Z,4.18
2017-11-17T02:17:45.058Z,4.18
2017-11-17T02:18:45.040Z,4.12
2017-11-17T02:19:45.047Z,4.16
2017-11-17T02:20:45.018Z,4.1
2017-11-17T02:21:44.749Z,4.13
2017-11-17T02:22:44.994Z,4.03
2017-11-17T02:23:44.729Z,4.07
2017-11-17T02:24:44.974Z,4.07
2017-11-17T02:25:44.966Z,4.04
2017-11-17T02:26:44.953Z,4.07
2017-11-17T02:27:44.687Z,4.07
2017-11-17T02:28:44.936Z,4.07
2017-11-17T02:29:44.931Z,4.1
2017-11-17T02:30:44.914Z,4.1
2017-11-17T02:31:44.646Z,4.13
2017-11-17T02:32:44.995Z,4.16
2017-11-17T02:33:44.885Z,4.12
2017-11-17T02:34:44.716Z,4.18
2017-11-17T02:35:44.859Z,4.25
2017-11-17T02:36:44.595Z,4.21
2017-11-17T02:37:44.686Z,4.2
2017-11-17T02:38:44.832Z,4.2
2017-11-17T02:39:44.831Z,4.14
2017-11-17T02:40:44.827Z,4.1
2017-11-17T02:41:44.804Z,4.06
2017-11-17T02:42:44.791Z,4.13
2017-11-17T02:43:44.778Z,4.09
2017-11-17T02:44:44.510Z,4.13
2017-11-17T02:45:44.762Z,4.13
2017-11-17T02:46:44.846Z,4.18
2017-11-17T02:47:44.501Z,4.2
2017-11-17T02:48:44.723Z,4.12
2017-11-17T02:49:44.720Z,4.22
2017-11-17T02:50:44.711Z,4.18
2017-11-17T02:51:44.709Z,4.24
2017-11-17T02:52:44.433Z,4.24
2017-11-17T02:53:44.671Z,4.28
2017-11-17T02:54:44.667Z,4.22
2017-11-17T02:55:44.492Z,4.21
2017-11-17T02:56:44.383Z,4.22
2017-11-17T02:57:44.630Z,4.18
2017-11-17T02:58:44.655Z,4.18
2017-11-17T02:59:44.608Z,4.06
2017-11-17T03:00:44.341Z,4.04
2017-11-17T03:01:44.595Z,4.14
2017-11-17T03:02:44.590Z,4.14
2017-11-17T03:03:44.576Z,4.16
2017-11-17T03:04:44.570Z,4
2017-11-17T03:05:44.292Z,4.07
2017-11-17T03:06:44.282Z,4.1
2017-11-17T03:07:44.542Z,4.13
2017-11-17T03:08:44.515Z,4.1
2017-11-17T03:09:44.515Z,4.18
2017-11-17T03:10:44.496Z,4.18
2017-11-17T03:11:44.491Z,4.1
2017-11-17T03:12:44.218Z,4.02
2017-11-17T03:13:43.949Z,4.07
2017-11-17T03:14:44.463Z,4.04
2017-11-17T03:15:44.184Z,3.99
2017-11-17T03:16:44.178Z,3.95
2017-11-17T03:17:44.428Z,4.07
2017-11-17T03:18:44.423Z,4.1
2017-11-17T03:19:44.405Z,4.04
2017-11-17T03:20:44.390Z,4.13
2017-11-17T03:21:44.124Z,4.04
2017-11-17T03:22:44.114Z,4.06
2017-11-17T03:23:44.481Z,4.13
2017-11-17T03:24:44.351Z,3.99
2017-11-17T03:25:44.347Z,3.95
2017-11-17T03:26:44.330Z,3.94
2017-11-17T03:27:44.059Z,3.99
2017-11-17T03:28:44.313Z,4.03
2017-11-17T03:29:44.298Z,3.95
2017-11-17T03:30:44.036Z,3.94
2017-11-17T03:31:44.275Z,4.03
2017-11-17T03:32:44.268Z,3.95
2017-11-17T03:33:43.997Z,4
2017-11-17T03:34:44.256Z,3.99
2017-11-17T03:35:44.259Z,3.95
2017-11-17T03:36:44.221Z,3.96
2017-11-17T03:37:44.220Z,3.94
2017-11-17T03:38:43.957Z,3.96
2017-11-17T03:39:44.190Z,3.92
2017-11-17T03:40:44.190Z,4
2017-11-17T03:41:43.915Z,3.94
2017-11-17T03:42:43.903Z,3.95
2017-11-17T03:43:44.156Z,3.91
2017-11-17T03:44:44.145Z,3.88
2017-11-17T03:45:44.158Z,3.78
2017-11-17T03:46:44.120Z,3.86
2017-11-17T03:47:43.596Z,3.77
2017-11-17T03:48:43.941Z,3.68
2017-11-17T03:49:44.190Z,3.66
2017-11-17T03:50:43.847Z,3.58
2017-11-17T03:51:44.177Z,3.59
2017-11-17T03:52:43.799Z,3.56
2017-11-17T03:53:44.052Z,3.59
2017-11-17T03:54:44.081Z,3.66
2017-11-17T03:55:44.023Z,3.68
2017-11-17T03:56:43.500Z,3.7
2017-11-17T03:57:44.006Z,3.66
2017-11-17T03:58:44.002Z,3.67
2017-11-17T03:59:43.983Z,3.63
2017-11-17T04:00:43.992Z,3.67
2017-11-17T04:01:43.964Z,3.74
2017-11-17T04:02:43.698Z,3.76
2017-11-17T04:03:43.958Z,3.85
2017-11-17T04:04:43.681Z,3.78
2017-11-17T04:05:44.033Z,3.81
2017-11-17T04:06:43.762Z,3.66
2017-11-17T04:07:43.645Z,3.68
2017-11-17T04:08:43.645Z,3.59
2017-11-17T04:09:43.879Z,3.53
2017-11-17T04:10:43.611Z,3.52
2017-11-17T04:11:43.608Z,3.48
2017-11-17T04:12:43.591Z,3.49
2017-11-17T04:13:43.846Z,3.48
2017-11-17T04:14:43.831Z,3.59
2017-11-17T04:15:43.827Z,3.43
2017-11-17T04:16:43.552Z,3.49
2017-11-17T04:17:43.800Z,3.52
2017-11-17T04:18:43.532Z,3.59
2017-11-17T04:19:43.620Z,3.55
2017-11-17T04:20:43.249Z,3.53
2017-11-17T04:21:43.758Z,3.53
2017-11-17T04:22:43.751Z,3.53
2017-11-17T04:23:43.746Z,3.4
2017-11-17T04:24:43.739Z,3.4
2017-11-17T04:25:43.729Z,3.45
2017-11-17T04:26:43.448Z,3.55
2017-11-17T04:27:43.439Z,3.53
2017-11-17T04:28:43.694Z,3.5
2017-11-17T04:29:43.673Z,3.5
2017-11-17T04:30:43.661Z,3.53
2017-11-17T04:31:43.658Z,3.61
2017-11-17T04:32:43.642Z,3.59
2017-11-17T04:33:43.633Z,3.56
2017-11-17T04:34:43.619Z,3.48
2017-11-17T04:35:43.621Z,3.52
2017-11-17T04:36:43.352Z,3.5
2017-11-17T04:37:43.596Z,3.52
2017-11-17T04:38:43.328Z,3.55
2017-11-17T04:39:43.664Z,3.4
2017-11-17T04:40:43.560Z,3.46
2017-11-17T04:41:43.032Z,3.34
2017-11-17T04:42:43.281Z,3.41
2017-11-17T04:43:43.274Z,3.3
2017-11-17T04:44:43.519Z,3.27
2017-11-17T04:45:43.505Z,3.36
2017-11-17T04:46:43.244Z,3.34
2017-11-17T04:47:43.229Z,3.26
2017-11-17T04:48:43.218Z,3.31
2017-11-17T04:49:43.203Z,3.3
2017-11-17T04:50:43.196Z,3.4
2017-11-17T04:51:43.459Z,3.37
2017-11-17T04:52:43.177Z,3.46
2017-11-17T04:53:43.163Z,3.53
2017-11-17T04:54:43.413Z,3.41
2017-11-17T04:55:43.415Z,3.34
2017-11-17T04:56:42.876Z,3.31
2017-11-17T04:57:43.382Z,3.36
2017-11-17T04:58:43.381Z,3.37
2017-11-17T04:59:43.101Z,3.34
2017-11-17T05:00:43.099Z,3.31
2017-11-17T05:01:43.339Z,3.4
2017-11-17T05:02:43.072Z,3.34
2017-11-17T05:03:43.327Z,3.34
2017-11-17T05:04:43.318Z,3.36
2017-11-17T05:05:43.040Z,3.4
2017-11-17T05:06:43.029Z,3.46
2017-11-17T05:07:42.758Z,3.45
2017-11-17T05:08:42.751Z,3.48
2017-11-17T05:09:43.100Z,3.66
2017-11-17T05:10:42.726Z,3.59
2017-11-17T05:11:43.257Z,3.64
2017-11-17T05:12:42.709Z,3.64
2017-11-17T05:13:42.956Z,3.7
2017-11-17T05:14:42.973Z,3.7
2017-11-17T05:15:43.197Z,3.81
2017-11-17T05:16:42.924Z,3.76
2017-11-17T05:17:43.173Z,3.7
2017-11-17T05:18:42.903Z,3.63
2017-11-17T05:19:42.898Z,3.58
2017-11-17T05:20:43.142Z,3.52
2017-11-17T05:21:43.139Z,3.48
2017-11-17T05:22:42.968Z,3.5
2017-11-17T05:23:43.109Z,3.52
2017-11-17T05:24:42.839Z,3.45
2017-11-17T05:25:43.087Z,3.5
2017-11-17T05:26:42.818Z,3.46
2017-11-17T05:27:42.908Z,3.48
2017-11-17T05:28:43.053Z,3.41
2017-11-17T05:29:42.788Z,3.46
2017-11-17T05:30:42.776Z,3.49
2017-11-17T05:31:42.763Z,3.48
2017-11-17T05:32:43.015Z,3.46
2017-11-17T05:33:43.000Z,3.52
2017-11-17T05:34:42.742Z,3.31
2017-11-17T05:35:42.986Z,3.46
2017-11-17T05:36:42.456Z,3.48
2017-11-17T05:37:42.968Z,3.55
2017-11-17T05:38:42.954Z,3.61
2017-11-17T05:39:42.678Z,3.48
2017-11-17T05:40:42.941Z,3.58
2017-11-17T05:41:42.660Z,3.53
2017-11-17T05:42:42.914Z,3.55
2017-11-17T05:43:42.995Z,3.52
2017-11-17T05:44:42.891Z,3.56
2017-11-17T05:45:42.886Z,3.61
2017-11-17T05:46:42.354Z,3.52
2017-11-17T05:47:42.859Z,3.5
2017-11-17T05:48:42.335Z,3.52
2017-11-17T05:49:42.580Z,3.45
2017-11-17T05:50:42.306Z,3.46
2017-11-17T05:51:42.811Z,3.41
2017-11-17T05:52:42.800Z,3.56
2017-11-17T05:53:42.538Z,3.61
2017-11-17T05:54:42.793Z,3.59
2017-11-17T05:55:42.515Z,3.61
2017-11-17T05:56:42.759Z,3.58
2017-11-17T05:57:42.754Z,3.59
2017-11-17T05:58:42.746Z,3.59
2017-11-17T05:59:42.732Z,3.55
2017-11-17T06:00:42.462Z,3.61
2017-11-17T06:01:42.454Z,3.59
2017-11-17T06:02:42.443Z,3.61
2017-11-17T06:03:42.438Z,3.63
2017-11-17T06:04:42.683Z,3.58
2017-11-17T06:05:42.686Z,3.63
2017-11-17T06:06:42.499Z,3.64
2017-11-17T06:07:42.393Z,3.64
2017-11-17T06:08:42.639Z,3.74
2017-11-17T06:09:42.368Z,3.81
2017-11-17T06:10:42.620Z,3.78
2017-11-17T06:11:42.603Z,3.77
2017-11-17T06:12:42.592Z,3.73
2017-11-17T06:13:42.582Z,3.76
2017-11-17T06:14:42.575Z,3.74
2017-11-17T06:15:42.660Z,3.76
2017-11-17T06:16:42.653Z,3.74
2017-11-17T06:17:42.540Z,3.77
2017-11-17T06:18:42.274Z,3.88
2017-11-17T06:19:42.268Z,3.85
2017-11-17T06:20:42.515Z,3.81
2017-11-17T06:21:42.503Z,3.86
2017-11-17T06:22:42.495Z,3.89
2017-11-17T06:23:42.481Z,3.89
2017-11-17T06:24:42.475Z,3.99
2017-11-17T06:25:42.200Z,3.95
2017-11-17T06:26:42.552Z,3.94
2017-11-17T06:27:42.443Z,4.02
2017-11-17T06:28:42.166Z,4.06
2017-11-17T06:29:42.414Z,4.03
2017-11-17T06:30:42.518Z,3.95
2017-11-17T06:31:42.135Z,4.03
2017-11-17T06:32:42.390Z,4.06
2017-11-17T06:33:42.376Z,4.13
2017-11-17T06:34:42.489Z,4.13
2017-11-17T06:35:42.095Z,4.14
2017-11-17T06:36:42.346Z,4.21
2017-11-17T06:37:42.078Z,4.18
2017-11-17T06:38:42.329Z,4.27
2017-11-17T06:39:42.310Z,4.32
2017-11-17T06:40:42.046Z,4.27
2017-11-17T06:41:42.298Z,4.18
2017-11-17T06:42:42.280Z,4.18
2017-11-17T06:43:42.267Z,4.14
2017-11-17T06:44:42.361Z,4.12
2017-11-17T06:45:42.243Z,4.14
2017-11-17T06:46:41.980Z,4.14
2017-11-17T06:47:42.225Z,4.06
2017-11-17T06:48:42.259Z,4.1
2017-11-17T06:49:42.203Z,4.04
2017-11-17T06:50:42.204Z,4.02
2017-11-17T06:51:41.928Z,4.03
2017-11-17T06:52:42.175Z,4.03
2017-11-17T06:53:42.166Z,4.06
2017-11-17T06:54:41.993Z,4.04
2017-11-17T06:55:41.885Z,4.03
2017-11-17T06:56:42.132Z,3.96
2017-11-17T06:57:41.867Z,4.06
2017-11-17T06:58:42.119Z,4.13
2017-11-17T06:59:41.843Z,4.21
2017-11-17T07:00:41.836Z,4.21
2017-11-17T07:01:42.088Z,4.3
2017-11-17T07:02:41.812Z,4.39
2017-11-17T07:03:42.090Z,4.31
2017-11-17T07:04:41.799Z,4.4
2017-11-17T07:05:41.784Z,4.5
2017-11-17T07:06:42.033Z,4.49
2017-11-17T07:07:42.019Z,4.48
2017-11-17T07:08:42.008Z,4.49
2017-11-17T07:09:41.481Z,4.43
2017-11-17T07:10:41.994Z,4.48
2017-11-17T07:11:41.717Z,4.45
2017-11-17T07:12:41.962Z,4.52
2017-11-17T07:13:41.701Z,4.45
2017-11-17T07:14:41.946Z,4.43
2017-11-17T07:15:42.041Z,4.48
2017-11-17T07:16:41.664Z,4.56
2017-11-17T07:17:41.916Z,4.53
2017-11-17T07:18:41.646Z,4.57
2017-11-17T07:19:41.630Z,4.58
2017-11-17T07:20:41.899Z,4.53
2017-11-17T07:21:41.875Z,4.5
2017-11-17T07:22:41.860Z,4.4
2017-11-17T07:23:41.853Z,4.38
2017-11-17T07:24:41.593Z,4.2
2017-11-17T07:25:41.835Z,4.24
2017-11-17T07:26:41.824Z,4.22
2017-11-17T07:27:41.812Z,4.21
2017-11-17T07:28:41.798Z,4.3
2017-11-17T07:29:41.532Z,4.4
2017-11-17T07:30:41.527Z,4.32
2017-11-17T07:31:41.511Z,4.4
2017-11-17T07:32:41.508Z,4.3
2017-11-17T07:33:41.487Z,4.24
2017-11-17T07:34:41.487Z,4.32
2017-11-17T07:35:41.734Z,4.38
2017-11-17T07:36:41.718Z,4.38
2017-11-17T07:37:41.446Z,4.5
2017-11-17T07:38:41.442Z,4.4
2017-11-17T07:39:41.685Z,4.38
2017-11-17T07:40:41.706Z,4.48
2017-11-17T07:41:41.674Z,4.45
2017-11-17T07:42:41.648Z,4.49
2017-11-17T07:43:41.747Z,4.57
2017-11-17T07:44:41.635Z,4.57
2017-11-17T07:45:41.646Z,4.7
2017-11-17T07:46:41.355Z,4.67
2017-11-17T07:47:41.344Z,4.75
2017-11-17T07:48:41.337Z,4.7
2017-11-17T07:49:41.072Z,4.7
2017-11-17T07:50:41.573Z,4.67
2017-11-17T07:51:41.306Z,4.74
2017-11-17T07:52:41.549Z,4.74
2017-11-17T07:53:41.643Z,4.71
2017-11-17T07:54:41.534Z,4.66
2017-11-17T07:55:41.269Z,4.68
2017-11-17T07:56:41.250Z,4.66
2017-11-17T07:57:41.509Z,4.7
2017-11-17T07:58:41.233Z,4.74
2017-11-17T07:59:41.221Z,4.74
2017-11-17T08:00:41.317Z,4.7
2017-11-17T08:01:41.210Z,4.7
2017-11-17T08:02:41.472Z,4.86
2017-11-17T08:03:41.289Z,4.79
2017-11-17T08:04:41.179Z,4.78
2017-11-17T08:05:41.161Z,4.78
2017-11-17T08:06:41.417Z,4.9
2017-11-17T08:07:40.879Z,4.92
2017-11-17T08:08:41.394Z,4.94
2017-11-17T08:09:41.379Z,5.04
2017-11-17T08:10:41.510Z,4.94
2017-11-17T08:11:41.357Z,5.01
2017-11-17T08:12:41.347Z,5.04
2017-11-17T08:13:41.079Z,5.01
2017-11-17T08:14:41.167Z,5
2017-11-17T08:15:41.328Z,5.12
2017-11-17T08:16:41.303Z,5.01
2017-11-17T08:17:41.038Z,5.02
2017-11-17T08:18:41.024Z,5.07
2017-11-17T08:19:41.019Z,5.1
2017-11-17T08:20:41.266Z,5.1
2017-11-17T08:21:41.095Z,5.05
2017-11-17T08:22:40.725Z,5.08
2017-11-17T08:23:41.241Z,5.05
2017-11-17T08:24:40.961Z,5.01
2017-11-17T08:25:41.311Z,5.02
2017-11-17T08:26:41.205Z,5.02
2017-11-17T08:27:40.933Z,5.04
2017-11-17T08:28:40.662Z,5.02
2017-11-17T08:29:41.167Z,5
2017-11-17T08:30:41.159Z,5.02
2017-11-17T08:31:40.891Z,5.12
2017-11-17T08:32:40.622Z,5.04
2017-11-17T08:33:41.231Z,5.12
2017-11-17T08:34:40.604Z,5.05
2017-11-17T08:35:40.691Z,5.07
2017-11-17T08:36:41.099Z,5.01
2017-11-17T08:37:40.834Z,4.97
2017-11-17T08:38:40.826Z,5.01
2017-11-17T08:39:40.806Z,4.97
2017-11-17T08:40:41.070Z,5
2017-11-17T08:41:41.047Z,5
2017-11-17T08:42:41.051Z,5.01
2017-11-17T08:43:41.025Z,4.94
2017-11-17T08:44:40.760Z,4.98
2017-11-17T08:45:40.491Z,4.97
2017-11-17T08:46:40.738Z,5.02
2017-11-17T08:47:40.730Z,4.94
2017-11-17T08:48:40.973Z,4.98
2017-11-17T08:49:41.031Z,5.01
2017-11-17T08:50:40.980Z,4.86
2017-11-17T08:51:40.692Z,5
2017-11-17T08:52:40.678Z,4.9
2017-11-17T08:53:40.922Z,5
2017-11-17T08:54:40.911Z,4.9
2017-11-17T08:55:40.393Z,5.05
2017-11-17T08:56:40.636Z,4.97
2017-11-17T08:57:40.881Z,5.04
2017-11-17T08:58:40.357Z,5.07
2017-11-17T08:59:40.863Z,5.13
2017-11-17T09:00:40.594Z,5.1
2017-11-17T09:01:40.863Z,5.08
2017-11-17T09:02:40.838Z,5.16
2017-11-17T09:03:40.566Z,5.22
2017-11-17T09:04:40.552Z,5.18
2017-11-17T09:05:40.801Z,5.29
2017-11-17T09:06:40.795Z,5.28
2017-11-17T09:07:40.529Z,5.36
2017-11-17T09:08:40.799Z,5.33
2017-11-17T09:09:40.872Z,5.34
2017-11-17T09:10:40.235Z,5.36
2017-11-17T09:11:40.488Z,5.36
2017-11-17T09:12:40.737Z,5.47
2017-11-17T09:13:40.726Z,5.52
2017-11-17T09:14:40.553Z,5.52
2017-11-17T09:15:40.540Z,5.47
2017-11-17T09:16:40.435Z,5.56
2017-11-17T09:17:40.422Z,5.55
2017-11-17T09:18:40.406Z,5.51
2017-11-17T09:19:40.663Z,5.51
2017-11-17T09:20:40.679Z,5.58
2017-11-17T09:21:40.383Z,5.51
2017-11-17T09:22:40.627Z,5.61
2017-11-17T09:23:40.360Z,5.55
2017-11-17T09:24:40.607Z,5.49
2017-11-17T09:25:40.595Z,5.52
2017-11-17T09:26:40.336Z,5.67
2017-11-17T09:27:40.591Z,5.54
2017-11-17T09:28:40.571Z,5.64
2017-11-17T09:29:40.555Z,5.67
2017-11-17T09:30:40.286Z,5.61
2017-11-17T09:31:40.286Z,5.64
2017-11-17T09:32:40.529Z,5.65
2017-11-17T09:33:40.511Z,5.64
2017-11-17T09:34:40.248Z,5.65
2017-11-17T09:35:40.235Z,5.61
2017-11-17T09:36:40.487Z,5.7
2017-11-17T09:37:40.218Z,5.65
2017-11-17T09:38:40.208Z,5.72
2017-11-17T09:39:40.456Z,5.79
2017-11-17T09:40:40.456Z,5.72
2017-11-17T09:41:40.176Z,5.83
2017-11-17T09:42:40.174Z,5.77
2017-11-17T09:43:40.412Z,5.8
2017-11-17T09:44:40.409Z,5.83
2017-11-17T09:45:40.135Z,5.83
2017-11-17T09:46:39.868Z,5.88
2017-11-17T09:47:40.371Z,5.99
2017-11-17T09:48:40.366Z,5.94
2017-11-17T09:49:40.093Z,5.95
2017-11-17T09:50:40.487Z,5.97
2017-11-17T09:51:40.332Z,5.99
2017-11-17T09:52:40.073Z,6.01
2017-11-17T09:53:40.056Z,6.09
2017-11-17T09:54:40.059Z,6.1
2017-11-17T09:55:40.033Z,6.07
2017-11-17T09:56:40.284Z,6.16
2017-11-17T09:57:40.016Z,6.12
2017-11-17T09:58:40.003Z,6.15
2017-11-17T09:59:40.252Z,6.22
2017-11-17T10:00:40.295Z,6.26
2017-11-17T10:01:39.974Z,6.32
2017-11-17T10:02:40.223Z,6.29
2017-11-17T10:03:40.213Z,6.29
2017-11-17T10:04:39.945Z,6.25
2017-11-17T10:05:40.034Z,6.32
2017-11-17T10:06:39.925Z,6.28
2017-11-17T10:07:40.188Z,6.26
2017-11-17T10:08:39.902Z,6.25
2017-11-17T10:09:39.636Z,6.25
2017-11-17T10:10:40.150Z,6.26
2017-11-17T10:11:40.132Z,6.31
2017-11-17T10:12:39.868Z,6.22
2017-11-17T10:13:39.852Z,6.2
2017-11-17T10:14:39.848Z,6.29
2017-11-17T10:15:40.191Z,6.28
2017-11-17T10:16:40.082Z,6.29
2017-11-17T10:17:39.809Z,6.34
2017-11-17T10:18:39.904Z,6.2
2017-11-17T10:19:39.797Z,6.31
2017-11-17T10:20:39.791Z,6.31
2017-11-17T10:21:40.034Z,6.28
2017-11-17T10:22:40.023Z,6.31
2017-11-17T10:23:40.016Z,6.35
2017-11-17T10:24:40.002Z,6.44
2017-11-17T10:25:39.740Z,6.34
2017-11-17T10:26:39.825Z,6.36
2017-11-17T10:27:39.710Z,6.39
2017-11-17T10:28:39.700Z,6.49
2017-11-17T10:29:39.695Z,6.44
2017-11-17T10:30:40.113Z,6.52
2017-11-17T10:31:39.675Z,6.56
2017-11-17T10:32:39.662Z,6.5
2017-11-17T10:33:39.916Z,6.54
2017-11-17T10:34:39.897Z,6.52
2017-11-17T10:35:39.891Z,6.43
2017-11-17T10:36:39.882Z,6.49
2017-11-17T10:37:39.612Z,6.49
2017-11-17T10:38:39.862Z,6.5
2017-11-17T10:39:39.950Z,6.49
2017-11-17T10:40:39.584Z,6.46
2017-11-17T10:41:39.833Z,6.53
2017-11-17T10:42:39.566Z,6.53
2017-11-17T10:43:39.555Z,6.52
2017-11-17T10:44:39.542Z,6.39
2017-11-17T10:45:39.793Z,6.47
2017-11-17T10:46:39.782Z,6.43
2017-11-17T10:47:39.616Z,6.47
2017-11-17T10:48:39.775Z,6.59
2017-11-17T10:49:39.753Z,6.52
2017-11-17T10:50:39.743Z,6.53
2017-11-17T10:51:39.838Z,6.57
2017-11-17T10:52:39.731Z,6.52
2017-11-17T10:53:39.710Z,6.56
2017-11-17T10:54:39.449Z,6.57
2017-11-17T10:55:39.432Z,6.65
2017-11-17T10:56:39.439Z,6.57
2017-11-17T10:57:39.677Z,6.71
2017-11-17T10:58:39.698Z,6.68
2017-11-17T10:59:39.653Z,6.65
2017-11-17T11:00:39.645Z,6.64
2017-11-17T11:01:39.114Z,6.67
2017-11-17T11:02:39.364Z,6.6
2017-11-17T11:03:39.713Z,6.7
2017-11-17T11:04:39.344Z,6.83
2017-11-17T11:05:39.601Z,6.82
2017-11-17T11:06:39.606Z,6.78
2017-11-17T11:07:39.054Z,6.83
2017-11-17T11:08:39.305Z,6.86
2017-11-17T11:09:39.555Z,6.8
2017-11-17T11:10:39.541Z,6.8
2017-11-17T11:11:39.275Z,6.78
2017-11-17T11:12:39.264Z,6.7
2017-11-17T11:13:39.511Z,6.67
2017-11-17T11:14:39.504Z,6.6
2017-11-17T11:15:39.597Z,6.64
2017-11-17T11:16:39.501Z,6.74
2017-11-17T11:17:39.224Z,6.7
2017-11-17T11:18:39.461Z,6.72
2017-11-17T11:19:39.202Z,6.71
2017-11-17T11:20:39.443Z,6.77
2017-11-17T11:21:39.445Z,6.74
2017-11-17T11:22:39.265Z,6.7
2017-11-17T11:23:39.409Z,6.71
2017-11-17T11:24:39.148Z,6.71
2017-11-17T11:25:39.392Z,6.82
2017-11-17T11:26:39.381Z,6.85
2017-11-17T11:27:39.376Z,6.77
2017-11-17T11:28:39.110Z,6.68
2017-11-17T11:29:39.360Z,6.77
2017-11-17T11:30:39.354Z,6.82
2017-11-17T11:31:39.345Z,6.78
2017-11-17T11:32:39.166Z,6.78
2017-11-17T11:33:39.326Z,6.8
2017-11-17T11:34:39.309Z,6.78
2017-11-17T11:35:39.340Z,6.85
2017-11-17T11:36:39.284Z,6.82
2017-11-17T11:37:39.277Z,6.77
2017-11-17T11:38:39.009Z,6.78
2017-11-17T11:39:39.255Z,6.71
2017-11-17T11:40:39.249Z,6.77
2017-11-17T11:41:39.239Z,6.74
2017-11-17T11:42:38.967Z,6.75
2017-11-17T11:43:39.326Z,6.72
2017-11-17T11:44:38.686Z,6.75
2017-11-17T11:45:39.210Z,6.74
2017-11-17T11:46:39.191Z,6.78
2017-11-17T11:47:39.176Z,6.74
2017-11-17T11:48:39.174Z,6.75
2017-11-17T11:49:39.163Z,6.75
2017-11-17T11:50:38.629Z,6.86
2017-11-17T11:51:39.145Z,6.77
2017-11-17T11:52:39.144Z,6.77
2017-11-17T11:53:38.859Z,6.8
2017-11-17T11:54:38.860Z,6.75
2017-11-17T11:55:38.844Z,6.75
2017-11-17T11:56:38.567Z,6.8
2017-11-17T11:57:39.087Z,6.77
2017-11-17T11:58:39.176Z,6.75
2017-11-17T11:59:38.795Z,6.85
2017-11-17T12:00:39.044Z,6.86
2017-11-17T12:01:38.780Z,6.83
2017-11-17T12:02:39.028Z,6.82
2017-11-17T12:03:39.019Z,6.74
2017-11-17T12:04:38.756Z,6.8
2017-11-17T12:05:38.998Z,6.82
2017-11-17T12:06:38.731Z,6.83
2017-11-17T12:07:38.974Z,6.82
2017-11-17T12:08:38.727Z,6.85
2017-11-17T12:09:38.954Z,6.87
2017-11-17T12:10:39.056Z,6.92
2017-11-17T12:11:38.947Z,6.89
2017-11-17T12:12:38.933Z,6.86
2017-11-17T12:13:38.667Z,6.92
2017-11-17T12:14:38.913Z,6.92
2017-11-17T12:15:38.902Z,6.86
2017-11-17T12:16:38.889Z,6.95
2017-11-17T12:17:38.875Z,7
2017-11-17T12:18:38.867Z,6.95
2017-11-17T12:19:38.872Z,7.01
2017-11-17T12:20:38.863Z,6.96
2017-11-17T12:21:38.856Z,6.97
2017-11-17T12:22:38.310Z,7.01
2017-11-17T12:23:38.821Z,6.95
2017-11-17T12:24:38.548Z,7
2017-11-17T12:25:38.815Z,6.97
2017-11-17T12:26:38.530Z,6.95
2017-11-17T12:27:38.811Z,6.96
2017-11-17T12:28:38.507Z,6.89
2017-11-17T12:29:38.498Z,6.87
2017-11-17T12:30:38.495Z,6.93
2017-11-17T12:31:38.747Z,6.92
2017-11-17T12:32:38.478Z,6.89
2017-11-17T12:33:38.462Z,6.89
2017-11-17T12:34:38.451Z,6.9
2017-11-17T12:35:38.799Z,6.95
2017-11-17T12:36:38.433Z,6.86
2017-11-17T12:37:38.701Z,6.83
2017-11-17T12:38:38.412Z,6.8
2017-11-17T12:39:38.660Z,6.75
2017-11-17T12:40:38.412Z,6.77
2017-11-17T12:41:38.125Z,6.82
2017-11-17T12:42:38.630Z,6.75
2017-11-17T12:43:38.625Z,6.78
2017-11-17T12:44:38.621Z,6.74
2017-11-17T12:45:38.603Z,6.75
2017-11-17T12:46:38.593Z,6.71
2017-11-17T12:47:38.597Z,6.78
2017-11-17T12:48:38.571Z,6.78
2017-11-17T12:49:38.580Z,6.74
2017-11-17T12:50:38.654Z,6.71
2017-11-17T12:51:38.567Z,6.71
2017-11-17T12:52:38.532Z,6.7
2017-11-17T12:53:38.267Z,6.71
2017-11-17T12:54:38.251Z,6.77
2017-11-17T12:55:38.507Z,6.77
2017-11-17T12:56:38.237Z,6.72
2017-11-17T12:57:38.233Z,6.77
2017-11-17T12:58:38.576Z,6.75
2017-11-17T12:59:38.567Z,6.75
2017-11-17T13:00:38.298Z,6.78
2017-11-17T13:01:38.451Z,6.83
2017-11-17T13:02:38.430Z,6.75
2017-11-17T13:03:38.421Z,6.75
2017-11-17T13:04:38.425Z,6.74
2017-11-17T13:05:38.245Z,6.62
2017-11-17T13:06:38.396Z,6.6
2017-11-17T13:07:37.867Z,6.67
2017-11-17T13:08:38.479Z,6.7
2017-11-17T13:09:38.105Z,6.64
2017-11-17T13:10:38.356Z,6.56
2017-11-17T13:11:38.343Z,6.57
2017-11-17T13:12:38.365Z,6.59
2017-11-17T13:13:38.323Z,6.6
2017-11-17T13:14:38.322Z,6.49
2017-11-17T13:15:38.047Z,6.62
2017-11-17T13:16:38.142Z,6.67
2017-11-17T13:17:38.027Z,6.62
2017-11-17T13:18:38.290Z,6.64
2017-11-17T13:19:38.293Z,6.62
2017-11-17T13:20:38.257Z,6.52
2017-11-17T13:21:37.728Z,6.65
2017-11-17T13:22:37.976Z,6.57